PAUN/UNK METAR and TAF weather

Enter ICAO airport designator
Station Type Date Time Source
PAUN METAR 2022/05/24 23:56 UTC NOAA

PAUN 242356Z AUTO 32013KT 10SM SCT095 15/01 A2985 RMK AO2 SLP113 T01500011 10194 20144 58005


Station Type Date Time Source
PAUN Decoded METAR 2022/05/24 23:56 UTC NOAA

Unalakleet, AK, United States (PAUN) 63-53N 160-48W 6M
May 24, 2022 - 07:56 PM EDT / 2022.05.24 2356 UTC
Wind: from the NW (320 degrees) at 15 MPH (13 KT):0
Visibility: 10 mile(s):0
Sky conditions: partly cloudy
Temperature: 59.0 F (15.0 C)
Dew Point: 34.0 F (1.1 C)
Relative Humidity: 38%
Pressure (altimeter): 29.85 in. Hg (1010 hPa)
Pressure tendency: 0.01 inches (0.5 hPa) lower than three hours ago
ob: PAUN 242356Z AUTO 32013KT 10SM SCT095 15/01 A2985 RMK AO2 SLP113 T01500011 10194 20144 58005
cycle: 0

Station Type Date Time Source
PAUN TAF 2022/05/24 18:46 UTC NOAA

TAF PAUN 241744Z 2418/2518 08012KT P6SM BKN100
FM242000 22006KT P6SM SCT100
FM242200 30008KT P6SM SCT100
FM250900 09006KT P6SM FEW100

Example: see airport list